createdAt,value
2023-03-14T00:01:34.350Z,2.28
2023-03-14T00:04:01.592Z,1.83
2023-03-14T00:06:28.590Z,1.65
2023-03-14T00:08:55.875Z,1.77
2023-03-14T00:11:23.161Z,1.40
2023-03-14T00:13:53.356Z,1.38
2023-03-14T00:16:21.742Z,1.25
2023-03-14T00:18:48.758Z,1.63
2023-03-14T00:21:16.169Z,1.70
2023-03-14T00:23:44.001Z,1.42
2023-03-14T00:26:13.563Z,1.90
2023-03-14T00:28:41.857Z,1.50
2023-03-14T00:31:12.644Z,1.67
2023-03-14T00:33:42.362Z,1.30
2023-03-14T00:36:12.691Z,2.05
2023-03-14T00:38:40.756Z,1.30
2023-03-14T00:41:10.678Z,1.65
2023-03-14T00:43:38.201Z,1.73
2023-03-14T00:46:05.974Z,2.00
2023-03-14T00:48:33.704Z,1.42
2023-03-14T00:51:02.557Z,1.45
2023-03-14T00:53:29.637Z,1.02
2023-03-14T00:55:56.635Z,1.05
2023-03-14T00:58:23.593Z,0.80
2023-03-14T01:00:50.868Z,1.30
2023-03-14T01:03:18.177Z,1.50
2023-03-14T01:05:45.128Z,1.60
2023-03-14T01:08:13.015Z,1.23
2023-03-14T01:10:41.577Z,1.20
2023-03-14T01:13:09.679Z,2.78
2023-03-14T01:15:38.379Z,1.65
2023-03-14T01:18:05.954Z,1.30
2023-03-14T01:20:33.063Z,1.70
2023-03-14T01:22:59.948Z,1.75
2023-03-14T01:25:27.353Z,1.60
2023-03-14T01:27:55.061Z,1.58
2023-03-14T01:30:22.598Z,1.60
2023-03-14T01:32:49.571Z,1.45
2023-03-14T01:35:17.059Z,1.33
2023-03-14T01:37:44.116Z,1.63
2023-03-14T01:40:17.491Z,1.83
2023-03-14T01:42:59.442Z,1.70
2023-03-14T01:46:03.825Z,1.50
2023-03-14T01:48:40.050Z,2.10
2023-03-14T01:51:15.784Z,1.83
2023-03-14T01:53:44.256Z,3.05
2023-03-14T01:56:14.749Z,2.70
2023-03-14T01:58:44.734Z,2.38
2023-03-14T02:01:12.816Z,2.70
2023-03-14T02:03:53.372Z,3.25
2023-03-14T02:06:26.482Z,2.28
2023-03-14T02:08:56.797Z,2.63
2023-03-14T02:11:31.041Z,2.80
2023-03-14T02:14:06.060Z,3.50
2023-03-14T02:16:52.254Z,2.67
2023-03-14T02:19:48.737Z,2.47
2023-03-14T02:22:45.239Z,2.05
2023-03-14T02:25:27.115Z,2.53
2023-03-14T02:27:54.916Z,2.53
2023-03-14T02:30:28.281Z,1.90
2023-03-14T02:33:03.435Z,2.58
2023-03-14T02:35:47.674Z,3.22
2023-03-14T02:38:28.698Z,3.08
2023-03-14T02:40:55.625Z,5.30
2023-03-14T02:43:23.176Z,3.63
2023-03-14T02:45:57.546Z,3.15
2023-03-14T02:48:44.846Z,3.83
2023-03-14T02:51:13.385Z,3.80
2023-03-14T02:53:42.328Z,2.65
2023-03-14T02:56:12.428Z,3.15
2023-03-14T02:58:40.014Z,3.58
2023-03-14T03:01:18.751Z,3.80
2023-03-14T03:03:45.840Z,3.83
2023-03-14T03:06:12.891Z,4.15
2023-03-14T03:08:39.852Z,4.85
2023-03-14T03:11:07.661Z,4.10
2023-03-14T03:13:37.079Z,4.15
2023-03-14T03:16:06.798Z,3.83
2023-03-14T03:18:35.343Z,3.60
2023-03-14T03:21:06.871Z,2.90
2023-03-14T03:23:33.853Z,5.78
2023-03-14T03:26:01.089Z,2.55
2023-03-14T03:28:28.146Z,5.18
2023-03-14T03:30:56.317Z,4.50
2023-03-14T03:33:24.812Z,3.78
2023-03-14T03:35:53.456Z,4.53
2023-03-14T03:38:27.754Z,4.63
2023-03-14T03:40:56.219Z,5.40
2023-03-14T03:43:26.199Z,3.95
2023-03-14T03:45:53.225Z,3.03
2023-03-14T03:48:21.337Z,3.53
2023-03-14T03:50:50.414Z,3.85
2023-03-14T03:53:32.823Z,5.32
2023-03-14T03:56:02.658Z,4.15
2023-03-14T03:58:30.169Z,5.20
2023-03-14T04:00:57.182Z,4.65
2023-03-14T04:03:24.573Z,3.63
2023-03-14T04:06:09.323Z,4.55
2023-03-14T04:08:38.986Z,4.18
2023-03-14T04:11:06.758Z,3.83
2023-03-14T04:13:54.797Z,3.80
2023-03-14T04:16:24.348Z,4.90
2023-03-14T04:18:54.695Z,2.88
2023-03-14T04:21:23.392Z,3.50
2023-03-14T04:23:55.474Z,3.28
2023-03-14T04:26:22.552Z,4.60
2023-03-14T04:28:50.104Z,3.00
2023-03-14T04:31:22.534Z,3.42
2023-03-14T04:33:51.024Z,2.70
2023-03-14T04:36:24.977Z,4.10
2023-03-14T04:38:52.558Z,2.70
2023-03-14T04:41:21.418Z,3.97
2023-03-14T04:43:48.875Z,4.60
2023-03-14T04:46:16.080Z,3.63
2023-03-14T04:48:44.108Z,4.22
2023-03-14T04:51:11.434Z,3.78
2023-03-14T04:53:38.397Z,2.47
2023-03-14T04:56:10.383Z,3.35
2023-03-14T04:58:39.783Z,3.72
2023-03-14T05:01:07.986Z,3.60
2023-03-14T05:03:53.410Z,2.78
2023-03-14T05:06:40.677Z,2.78
2023-03-14T05:09:27.242Z,3.60
2023-03-14T05:12:03.460Z,3.10
2023-03-14T05:14:51.858Z,2.20
2023-03-14T05:17:45.064Z,3.08
2023-03-14T05:20:41.297Z,2.83
2023-03-14T05:23:43.316Z,3.63
2023-03-14T05:26:32.496Z,4.20
2023-03-14T05:29:17.967Z,3.05
2023-03-14T05:31:58.733Z,2.78
2023-03-14T05:34:45.731Z,2.55
2023-03-14T05:37:30.729Z,2.67
2023-03-14T05:40:30.175Z,3.05
2023-03-14T05:43:04.680Z,3.08
2023-03-14T05:45:32.888Z,3.97
2023-03-14T05:48:10.821Z,3.58
2023-03-14T05:50:45.457Z,2.17
2023-03-14T05:53:15.606Z,3.22
2023-03-14T05:55:58.261Z,3.03
2023-03-14T05:58:45.619Z,2.00
2023-03-14T06:01:27.938Z,3.63
2023-03-14T06:04:11.352Z,3.00
2023-03-14T06:06:38.587Z,2.63
2023-03-14T06:09:07.058Z,2.88
2023-03-14T06:11:37.024Z,3.00
2023-03-14T06:14:05.633Z,2.30
2023-03-14T06:16:33.303Z,2.92
2023-03-14T06:19:01.410Z,2.67
2023-03-14T06:21:30.014Z,2.17
2023-03-14T06:23:57.495Z,2.72
2023-03-14T06:26:27.102Z,2.08
2023-03-14T06:28:54.904Z,3.85
2023-03-14T06:31:22.355Z,1.52
2023-03-14T06:33:54.760Z,2.40
2023-03-14T06:36:24.344Z,2.70
2023-03-14T06:38:51.709Z,1.70
2023-03-14T06:41:19.677Z,2.47
2023-03-14T06:43:48.941Z,2.65
2023-03-14T06:46:17.808Z,3.25
2023-03-14T06:48:44.878Z,3.13
2023-03-14T06:51:12.929Z,2.88
2023-03-14T06:53:39.934Z,2.13
2023-03-14T06:56:08.390Z,3.05
2023-03-14T06:58:36.170Z,2.08
2023-03-14T07:03:39.770Z,4.97
2023-03-14T07:06:07.257Z,3.88
2023-03-14T07:08:34.241Z,2.38
2023-03-14T07:11:02.201Z,3.20
2023-03-14T07:13:29.529Z,3.00
2023-03-14T07:16:02.072Z,2.58
2023-03-14T07:18:29.086Z,3.60
2023-03-14T07:20:56.890Z,2.33
2023-03-14T07:23:24.793Z,2.78
2023-03-14T07:25:54.863Z,2.60
2023-03-14T07:28:24.506Z,2.28
2023-03-14T07:30:57.930Z,2.63
2023-03-14T07:33:29.706Z,2.20
2023-03-14T07:35:57.213Z,2.00
2023-03-14T07:38:24.359Z,2.67
2023-03-14T07:41:18.553Z,2.78
2023-03-14T07:44:05.724Z,3.30
2023-03-14T07:46:32.743Z,3.38
2023-03-14T07:48:59.800Z,2.80
2023-03-14T07:51:26.837Z,3.28
2023-03-14T07:53:53.753Z,3.42
2023-03-14T07:56:20.693Z,2.28
2023-03-14T07:58:47.676Z,3.33
2023-03-14T08:01:15.728Z,1.98
2023-03-14T08:03:42.833Z,3.30
2023-03-14T08:06:09.899Z,3.13
2023-03-14T08:08:36.881Z,2.65
2023-03-14T08:11:09.833Z,3.28
2023-03-14T08:13:40.834Z,2.60
2023-03-14T08:16:08.438Z,2.40
2023-03-14T08:18:35.597Z,2.45
2023-03-14T08:21:02.683Z,2.67
2023-03-14T08:23:29.736Z,2.40
2023-03-14T08:25:56.775Z,2.60
2023-03-14T08:28:23.794Z,3.03
2023-03-14T08:30:50.874Z,1.73
2023-03-14T08:33:18.070Z,2.42
2023-03-14T08:35:45.039Z,3.05
2023-03-14T08:38:12.022Z,2.40
2023-03-14T08:40:38.937Z,2.08
2023-03-14T08:43:05.906Z,2.47
2023-03-14T08:45:32.886Z,2.95
2023-03-14T08:48:00.211Z,2.88
2023-03-14T08:50:27.342Z,2.20
2023-03-14T08:52:54.535Z,2.63
2023-03-14T08:55:22.121Z,2.35
2023-03-14T08:57:49.119Z,3.60
2023-03-14T09:00:16.574Z,3.47
2023-03-14T09:02:44.432Z,2.45
2023-03-14T09:05:12.831Z,3.50
2023-03-14T09:07:40.868Z,2.92
2023-03-14T09:10:09.784Z,3.47
2023-03-14T09:12:37.009Z,3.53
2023-03-14T09:15:04.993Z,3.03
2023-03-14T09:17:32.115Z,2.83
2023-03-14T09:20:00.612Z,3.10
2023-03-14T09:22:27.841Z,2.50
2023-03-14T09:24:54.839Z,2.95
2023-03-14T09:27:21.762Z,2.83
2023-03-14T09:29:49.096Z,2.45
2023-03-14T09:32:16.171Z,2.92
2023-03-14T09:34:43.284Z,2.92
2023-03-14T09:37:10.252Z,2.92
2023-03-14T09:39:37.436Z,2.50
2023-03-14T09:42:08.792Z,2.92
2023-03-14T09:44:43.681Z,3.10
2023-03-14T09:47:15.171Z,2.83
2023-03-14T09:49:43.644Z,3.53
2023-03-14T09:52:40.333Z,3.28
2023-03-14T09:55:16.871Z,2.30
2023-03-14T09:57:46.185Z,2.83
2023-03-14T10:00:22.855Z,2.50
2023-03-14T10:03:22.531Z,3.08
2023-03-14T10:05:49.712Z,3.22
2023-03-14T10:08:16.734Z,2.20
2023-03-14T10:10:44.131Z,2.55
2023-03-14T10:13:10.996Z,2.63
2023-03-14T10:15:39.071Z,2.53
2023-03-14T10:18:14.005Z,3.10
2023-03-14T10:20:46.048Z,3.88
2023-03-14T10:23:13.310Z,2.50
2023-03-14T10:26:10.131Z,3.53
2023-03-14T10:28:45.718Z,2.47
2023-03-14T10:31:13.224Z,2.80
2023-03-14T10:33:40.756Z,3.35
2023-03-14T10:36:27.389Z,3.45
2023-03-14T10:39:19.753Z,3.00
2023-03-14T10:41:53.981Z,2.53
2023-03-14T10:44:24.358Z,2.97
2023-03-14T10:49:37.643Z,2.60
2023-03-14T10:52:45.602Z,3.10
2023-03-14T10:55:15.240Z,2.35
2023-03-14T10:57:43.883Z,3.05
2023-03-14T11:00:18.226Z,3.25
2023-03-14T11:02:56.652Z,2.58
2023-03-14T11:05:32.748Z,3.55
2023-03-14T11:08:08.911Z,2.85
2023-03-14T11:10:44.103Z,2.58
2023-03-14T11:13:23.172Z,2.92
2023-03-14T11:16:18.029Z,3.85
2023-03-14T11:19:23.578Z,2.33
2023-03-14T11:22:04.470Z,3.13
2023-03-14T11:24:40.832Z,3.38
2023-03-14T11:27:28.335Z,3.22
2023-03-14T11:30:03.266Z,3.38
2023-03-14T11:32:45.282Z,3.38
2023-03-14T11:35:30.367Z,2.80
2023-03-14T11:38:14.492Z,3.42
2023-03-14T11:40:44.865Z,2.55
2023-03-14T11:43:24.008Z,3.10
2023-03-14T11:45:59.772Z,3.00
2023-03-14T11:48:38.429Z,3.67
2023-03-14T11:51:17.494Z,3.85
2023-03-14T11:53:52.375Z,3.38
2023-03-14T11:56:33.176Z,2.90
2023-03-14T11:59:33.141Z,3.00
2023-03-14T12:02:19.264Z,2.80
2023-03-14T12:05:06.316Z,3.70
2023-03-14T12:08:03.448Z,4.15
2023-03-14T12:10:55.684Z,3.20
2023-03-14T12:13:39.216Z,3.03
2023-03-14T12:16:24.920Z,2.80
2023-03-14T12:18:57.884Z,3.38
2023-03-14T12:21:51.412Z,4.03
2023-03-14T12:24:32.978Z,2.80
2023-03-14T12:27:03.050Z,3.22
2023-03-14T12:29:33.267Z,3.65
2023-03-14T12:32:24.615Z,3.22
2023-03-14T12:34:51.936Z,2.75
2023-03-14T12:37:23.691Z,3.40
2023-03-14T12:40:07.121Z,3.45
2023-03-14T12:42:45.041Z,2.63
2023-03-14T12:45:25.373Z,3.15
2023-03-14T12:48:26.056Z,4.03
2023-03-14T12:51:01.870Z,2.78
2023-03-14T12:53:44.126Z,3.13
2023-03-14T12:56:32.914Z,2.78
2023-03-14T12:58:59.801Z,3.28
2023-03-14T13:01:27.252Z,3.53
2023-03-14T13:03:59.093Z,2.53
2023-03-14T13:07:01.763Z,3.72
2023-03-14T13:09:34.888Z,3.33
2023-03-14T13:12:12.688Z,3.03
2023-03-14T13:15:00.778Z,3.30
2023-03-14T13:21:02.968Z,3.20
2023-03-14T13:23:45.330Z,3.58
2023-03-14T13:29:17.454Z,4.13
2023-03-14T13:38:23.860Z,3.55
2023-03-14T13:41:04.057Z,3.72
2023-03-14T13:43:36.707Z,2.40
2023-03-14T13:46:17.547Z,4.00
2023-03-14T13:49:03.325Z,2.65
2023-03-14T13:52:05.181Z,4.03
2023-03-14T13:54:58.192Z,2.97
2023-03-14T14:01:05.200Z,3.20
2023-03-14T14:03:41.068Z,2.55
2023-03-14T14:06:27.559Z,3.10
2023-03-14T14:09:01.830Z,4.07
2023-03-14T14:11:48.856Z,2.50
2023-03-14T14:14:35.538Z,4.13
2023-03-14T14:17:06.570Z,3.67
2023-03-14T14:19:35.235Z,3.17
2023-03-14T14:22:02.954Z,2.67
2023-03-14T14:24:32.794Z,3.05
2023-03-14T14:27:09.081Z,2.95
2023-03-14T14:29:36.616Z,2.83
2023-03-14T14:32:09.726Z,3.67
2023-03-14T14:34:50.448Z,3.35
2023-03-14T14:37:35.528Z,3.53
2023-03-14T14:40:12.858Z,3.22
2023-03-14T14:42:42.926Z,3.67
2023-03-14T14:45:19.812Z,3.92
2023-03-14T14:48:05.296Z,2.35
2023-03-14T14:50:33.840Z,3.50
2023-03-14T14:53:20.828Z,3.90
2023-03-14T14:55:52.186Z,3.03
2023-03-14T14:58:27.376Z,3.38
2023-03-14T15:00:58.601Z,4.75
2023-03-14T15:03:29.074Z,3.15
2023-03-14T15:05:58.838Z,4.00
2023-03-14T15:08:27.261Z,4.28
2023-03-14T15:10:54.349Z,3.03
2023-03-14T15:13:21.318Z,3.47
2023-03-14T15:15:48.498Z,3.08
2023-03-14T15:18:19.963Z,3.70
2023-03-14T15:20:47.359Z,3.58
2023-03-14T15:23:16.605Z,3.75
2023-03-14T15:25:56.836Z,3.42
2023-03-14T15:28:28.015Z,2.75
2023-03-14T15:30:58.095Z,3.20
2023-03-14T15:33:27.119Z,4.38
2023-03-14T15:35:54.320Z,2.75
2023-03-14T15:38:24.124Z,5.30
2023-03-14T15:40:52.564Z,5.07
2023-03-14T15:43:20.909Z,3.17
2023-03-14T15:45:47.985Z,2.92
2023-03-14T15:48:20.768Z,2.80
2023-03-14T15:50:47.677Z,3.08
2023-03-14T15:53:15.743Z,3.67
2023-03-14T15:55:42.788Z,4.38
2023-03-14T15:58:21.272Z,3.08
2023-03-14T16:00:50.053Z,2.53
2023-03-14T16:03:17.420Z,3.60
2023-03-14T16:05:44.429Z,3.42
2023-03-14T16:08:11.359Z,5.40
2023-03-14T16:10:39.759Z,4.05
2023-03-14T16:13:06.782Z,3.03
2023-03-14T16:15:33.740Z,3.70
2023-03-14T16:18:02.473Z,3.25
2023-03-14T16:20:42.097Z,4.22
2023-03-14T16:23:16.434Z,3.35
2023-03-14T16:25:45.426Z,3.95
2023-03-14T16:28:12.402Z,4.00
2023-03-14T16:30:39.565Z,3.90
2023-03-14T16:33:12.287Z,3.55
2023-03-14T16:35:40.421Z,3.83
2023-03-14T16:38:07.693Z,3.03
2023-03-14T16:40:34.715Z,2.85
2023-03-14T16:43:15.709Z,2.92
2023-03-14T16:45:46.413Z,2.95
2023-03-14T16:48:13.425Z,3.67
2023-03-14T16:50:41.444Z,3.60
2023-03-14T16:53:11.532Z,2.50
2023-03-14T16:55:45.345Z,2.42
2023-03-14T16:58:13.396Z,3.00
2023-03-14T17:00:40.802Z,2.90
2023-03-14T17:03:07.853Z,3.58
2023-03-14T17:05:34.884Z,3.25
2023-03-14T17:08:01.817Z,2.88
2023-03-14T17:10:29.040Z,2.97
2023-03-14T17:12:56.468Z,3.13
2023-03-14T17:15:23.634Z,2.15
2023-03-14T17:17:50.613Z,1.88
2023-03-14T17:20:17.978Z,3.47
2023-03-14T17:22:45.203Z,2.38
2023-03-14T17:25:12.258Z,2.92
2023-03-14T17:27:39.809Z,2.92
2023-03-14T17:30:07.323Z,2.55
2023-03-14T17:32:34.427Z,2.78
2023-03-14T17:35:01.596Z,2.45
2023-03-14T17:37:29.704Z,3.33
2023-03-14T17:39:57.014Z,2.88
2023-03-14T17:42:26.599Z,2.83
2023-03-14T17:44:58.347Z,2.63
2023-03-14T17:47:26.380Z,2.10
2023-03-14T17:49:53.763Z,2.22
2023-03-14T17:52:20.787Z,1.90
2023-03-14T17:54:53.418Z,2.20
2023-03-14T17:57:21.825Z,1.80
2023-03-14T17:59:50.530Z,2.03
2023-03-14T18:02:22.433Z,1.95
2023-03-14T18:04:55.689Z,1.85
2023-03-14T18:07:26.444Z,2.00
2023-03-14T18:12:20.583Z,2.08
2023-03-14T18:14:52.092Z,2.10
2023-03-14T18:19:51.483Z,2.22
2023-03-14T18:22:18.665Z,1.67
2023-03-14T18:24:45.854Z,3.35
2023-03-14T18:27:17.565Z,1.83
2023-03-14T18:29:44.861Z,3.78
2023-03-14T18:32:11.983Z,1.92
2023-03-14T18:34:39.952Z,2.10
2023-03-14T18:37:07.440Z,2.90
2023-03-14T18:39:37.231Z,1.65
2023-03-14T18:42:07.559Z,1.73
2023-03-14T18:44:37.209Z,1.88
2023-03-14T18:47:04.249Z,1.67
2023-03-14T18:49:34.981Z,1.60
2023-03-14T18:52:04.527Z,1.58
2023-03-14T18:54:32.093Z,1.88
2023-03-14T18:57:00.342Z,2.17
2023-03-14T18:59:27.421Z,2.00
2023-03-14T19:01:54.482Z,1.40
2023-03-14T19:04:21.673Z,1.52
2023-03-14T19:06:48.650Z,1.70
2023-03-14T19:09:16.730Z,1.42
2023-03-14T19:11:43.862Z,1.17
2023-03-14T19:14:12.349Z,1.40
2023-03-14T19:16:39.996Z,1.35
2023-03-14T19:19:07.081Z,1.30
2023-03-14T19:21:35.506Z,1.60
2023-03-14T19:24:03.340Z,1.73
2023-03-14T19:26:31.901Z,1.30
2023-03-14T19:28:59.888Z,1.05
2023-03-14T19:31:27.816Z,1.40
2023-03-14T19:33:55.042Z,1.67
2023-03-14T19:36:25.496Z,1.38
2023-03-14T19:41:22.094Z,1.77
2023-03-14T19:43:49.209Z,1.67
2023-03-14T19:46:16.318Z,1.50
2023-03-14T19:48:45.496Z,1.67
2023-03-14T19:51:13.912Z,1.38
2023-03-14T19:53:44.456Z,0.88
2023-03-14T19:56:11.893Z,1.63
2023-03-14T19:58:40.588Z,1.33
2023-03-14T20:01:09.028Z,1.38
2023-03-14T20:03:36.886Z,1.85
2023-03-14T20:06:12.032Z,1.77
2023-03-14T20:08:41.052Z,1.63
2023-03-14T20:11:08.941Z,1.20
2023-03-14T20:13:36.206Z,1.65
2023-03-14T20:16:04.349Z,1.52
2023-03-14T20:18:31.773Z,1.50
2023-03-14T20:20:59.303Z,2.20
2023-03-14T20:23:26.758Z,1.92
2023-03-14T20:25:56.254Z,1.70
2023-03-14T20:28:23.336Z,1.60
2023-03-14T20:30:50.384Z,1.73
2023-03-14T20:33:20.900Z,1.63
2023-03-14T20:35:58.849Z,1.38
2023-03-14T20:38:27.280Z,1.35
2023-03-14T20:41:03.174Z,1.33
2023-03-14T20:43:32.233Z,1.10
2023-03-14T20:46:00.773Z,1.55
2023-03-14T20:48:28.981Z,1.73
2023-03-14T20:50:56.306Z,2.00
2023-03-14T20:53:23.736Z,1.90
2023-03-14T20:55:52.251Z,1.73
2023-03-14T20:58:19.351Z,1.20
2023-03-14T21:00:49.630Z,1.17
2023-03-14T21:03:17.909Z,2.00
2023-03-14T21:05:47.052Z,1.65
2023-03-14T21:08:15.422Z,1.52
2023-03-14T21:10:42.508Z,1.10
2023-03-14T21:13:09.518Z,1.40
2023-03-14T21:15:37.838Z,1.25
2023-03-14T21:18:05.837Z,1.05
2023-03-14T21:20:34.052Z,1.65
2023-03-14T21:23:01.431Z,1.70
2023-03-14T21:25:28.865Z,1.52
2023-03-14T21:27:55.912Z,1.55
2023-03-14T21:30:23.354Z,1.60
2023-03-14T21:32:50.683Z,1.63
2023-03-14T21:35:17.989Z,1.60
2023-03-14T21:37:45.151Z,1.30
2023-03-14T21:40:12.884Z,1.60
2023-03-14T21:42:39.928Z,2.65
2023-03-14T21:45:07.759Z,2.10
2023-03-14T21:47:34.756Z,1.63
2023-03-14T21:50:01.986Z,1.20
2023-03-14T21:52:30.032Z,1.55
2023-03-14T21:54:56.993Z,1.60
2023-03-14T21:57:29.973Z,1.45
2023-03-14T21:59:57.193Z,1.48
2023-03-14T22:02:24.412Z,1.52
2023-03-14T22:04:51.585Z,1.40
2023-03-14T22:07:20.577Z,1.50
2023-03-14T22:09:48.402Z,1.42
2023-03-14T22:12:19.684Z,1.33
2023-03-14T22:14:47.885Z,1.42
2023-03-14T22:17:15.225Z,1.55
2023-03-14T22:19:42.235Z,1.60
2023-03-14T22:22:09.370Z,1.30
2023-03-14T22:24:36.467Z,1.85
2023-03-14T22:27:03.494Z,1.50
2023-03-14T22:29:30.505Z,1.65
2023-03-14T22:31:57.570Z,1.67
2023-03-14T22:34:31.732Z,1.52
2023-03-14T22:37:04.400Z,1.95
2023-03-14T22:39:32.514Z,1.83
2023-03-14T22:42:01.094Z,1.70
2023-03-14T22:44:32.744Z,1.67
2023-03-14T22:47:01.229Z,1.88
2023-03-14T22:49:30.777Z,1.65
2023-03-14T22:51:57.888Z,1.73
2023-03-14T22:54:24.930Z,1.80
2023-03-14T22:56:51.972Z,1.58
2023-03-14T22:59:19.223Z,2.13
2023-03-14T23:02:00.071Z,2.30
2023-03-14T23:04:51.154Z,2.17
2023-03-14T23:07:27.685Z,2.08
2023-03-14T23:09:54.601Z,2.08
2023-03-14T23:12:21.806Z,2.30
2023-03-14T23:14:48.812Z,1.60
2023-03-14T23:17:15.832Z,2.03
2023-03-14T23:19:45.598Z,1.80
2023-03-14T23:22:12.877Z,1.60
2023-03-14T23:24:39.855Z,2.67
2023-03-14T23:27:06.758Z,2.30
2023-03-14T23:29:33.666Z,1.90
2023-03-14T23:32:00.519Z,2.00
2023-03-14T23:34:30.331Z,2.05
2023-03-14T23:36:57.256Z,2.05
2023-03-14T23:39:26.801Z,2.40
2023-03-14T23:41:54.731Z,2.17
2023-03-14T23:44:23.183Z,2.15
2023-03-14T23:46:50.195Z,2.70
2023-03-14T23:49:17.194Z,3.35
2023-03-14T23:51:44.181Z,1.95
2023-03-14T23:54:11.124Z,2.30
2023-03-14T23:56:38.134Z,2.42
2023-03-14T23:59:05.295Z,2.83
